Terminal Aerodrome Forecast
Issued by NWS

Home | Current Version | Previous Version | Text Only | Print | Product List | Glossary On
Versions: 1 2 3 4 5 6 7 8 9 10 11 12
745
FTUS44 KBMX 071720
TAFANB
TAF
KANB 071720Z 0718/0818 32009KT P6SM SCT250
     FM072200 25006KT P6SM SCT250
     FM080900 22004KT P6SM BKN040 BKN150
     FM081500 26013G20KT P6SM BKN050=

USA.gov is the U.S. government's official web portal to all federal, state and local government web resources and services.